sensor_id;sensor_type;location;lat;lon;timestamp;P1;durP1;ratioP1;P2;durP2;ratioP2
23517;SDS011;11935;50.878;4.392;2023-11-19T00:01:23;0.00;;;0.00;;
23517;SDS011;11935;50.878;4.392;2023-11-19T00:03:49;0.00;;;0.00;;
23517;SDS011;11935;50.878;4.392;2023-11-19T00:06:15;0.00;;;0.00;;
23517;SDS011;11935;50.878;4.392;2023-11-19T00:08:42;0.00;;;0.00;;
23517;SDS011;11935;50.878;4.392;2023-11-19T00:11:11;0.00;;;0.00;;
23517;SDS011;11935;50.878;4.392;2023-11-19T00:13:40;0.00;;;0.00;;
23517;SDS011;11935;50.878;4.392;2023-11-19T00:16:06;0.00;;;0.00;;
23517;SDS011;11935;50.878;4.392;2023-11-19T00:18:34;0.00;;;0.00;;
23517;SDS011;11935;50.878;4.392;2023-11-19T00:21:01;0.00;;;0.00;;
23517;SDS011;11935;50.878;4.392;2023-11-19T00:23:27;0.00;;;0.00;;
23517;SDS011;11935;50.878;4.392;2023-11-19T00:25:53;0.00;;;0.00;;
23517;SDS011;11935;50.878;4.392;2023-11-19T00:28:20;0.10;;;0.10;;
23517;SDS011;11935;50.878;4.392;2023-11-19T00:30:46;0.00;;;0.00;;
23517;SDS011;11935;50.878;4.392;2023-11-19T00:33:12;0.00;;;0.00;;
23517;SDS011;11935;50.878;4.392;2023-11-19T00:35:38;0.00;;;0.00;;
23517;SDS011;11935;50.878;4.392;2023-11-19T00:38:04;0.00;;;0.00;;
23517;SDS011;11935;50.878;4.392;2023-11-19T00:40:30;0.00;;;0.00;;
23517;SDS011;11935;50.878;4.392;2023-11-19T00:42:56;0.00;;;0.00;;
23517;SDS011;11935;50.878;4.392;2023-11-19T00:45:22;0.00;;;0.00;;
23517;SDS011;11935;50.878;4.392;2023-11-19T00:47:48;0.00;;;0.00;;
23517;SDS011;11935;50.878;4.392;2023-11-19T00:50:15;0.00;;;0.00;;
23517;SDS011;11935;50.878;4.392;2023-11-19T00:52:41;0.00;;;0.00;;
23517;SDS011;11935;50.878;4.392;2023-11-19T00:55:07;0.00;;;0.00;;
23517;SDS011;11935;50.878;4.392;2023-11-19T00:57:33;0.10;;;0.10;;
23517;SDS011;11935;50.878;4.392;2023-11-19T01:00:00;0.00;;;0.00;;
23517;SDS011;11935;50.878;4.392;2023-11-19T01:02:27;0.00;;;0.00;;
23517;SDS011;11935;50.878;4.392;2023-11-19T01:04:54;0.00;;;0.00;;
23517;SDS011;11935;50.878;4.392;2023-11-19T01:07:20;0.00;;;0.00;;
23517;SDS011;11935;50.878;4.392;2023-11-19T01:09:47;0.00;;;0.00;;
23517;SDS011;11935;50.878;4.392;2023-11-19T01:12:13;0.00;;;0.00;;
23517;SDS011;11935;50.878;4.392;2023-11-19T01:14:39;0.00;;;0.00;;
23517;SDS011;11935;50.878;4.392;2023-11-19T01:17:05;0.00;;;0.00;;
23517;SDS011;11935;50.878;4.392;2023-11-19T01:19:31;0.00;;;0.00;;
23517;SDS011;11935;50.878;4.392;2023-11-19T01:21:57;0.00;;;0.00;;
23517;SDS011;11935;50.878;4.392;2023-11-19T01:24:23;0.00;;;0.00;;
23517;SDS011;11935;50.878;4.392;2023-11-19T01:26:53;0.00;;;0.00;;
23517;SDS011;11935;50.878;4.392;2023-11-19T01:29:19;0.00;;;0.00;;
23517;SDS011;11935;50.878;4.392;2023-11-19T01:31:46;0.00;;;0.00;;
23517;SDS011;11935;50.878;4.392;2023-11-19T01:34:12;0.00;;;0.00;;
23517;SDS011;11935;50.878;4.392;2023-11-19T01:36:38;0.00;;;0.00;;
23517;SDS011;11935;50.878;4.392;2023-11-19T01:39:04;0.00;;;0.00;;
23517;SDS011;11935;50.878;4.392;2023-11-19T01:41:34;0.00;;;0.00;;
23517;SDS011;11935;50.878;4.392;2023-11-19T01:44:01;0.00;;;0.00;;
23517;SDS011;11935;50.878;4.392;2023-11-19T01:46:27;0.00;;;0.00;;
23517;SDS011;11935;50.878;4.392;2023-11-19T01:48:53;0.00;;;0.00;;
23517;SDS011;11935;50.878;4.392;2023-11-19T01:51:20;0.00;;;0.00;;
23517;SDS011;11935;50.878;4.392;2023-11-19T01:53:47;0.00;;;0.00;;
23517;SDS011;11935;50.878;4.392;2023-11-19T01:56:14;0.00;;;0.00;;
23517;SDS011;11935;50.878;4.392;2023-11-19T01:58:41;0.00;;;0.00;;
23517;SDS011;11935;50.878;4.392;2023-11-19T02:01:07;0.00;;;0.00;;
23517;SDS011;11935;50.878;4.392;2023-11-19T02:03:33;0.00;;;0.00;;
23517;SDS011;11935;50.878;4.392;2023-11-19T02:06:00;0.00;;;0.00;;
23517;SDS011;11935;50.878;4.392;2023-11-19T02:08:26;0.00;;;0.00;;
23517;SDS011;11935;50.878;4.392;2023-11-19T02:10:52;0.00;;;0.00;;
23517;SDS011;11935;50.878;4.392;2023-11-19T02:13:22;0.00;;;0.00;;
23517;SDS011;11935;50.878;4.392;2023-11-19T02:15:48;0.00;;;0.00;;
23517;SDS011;11935;50.878;4.392;2023-11-19T02:20:44;0.00;;;0.00;;
23517;SDS011;11935;50.878;4.392;2023-11-19T02:23:11;0.10;;;0.10;;
23517;SDS011;11935;50.878;4.392;2023-11-19T02:25:37;0.00;;;0.00;;
23517;SDS011;11935;50.878;4.392;2023-11-19T02:28:04;0.00;;;0.00;;
23517;SDS011;11935;50.878;4.392;2023-11-19T02:30:30;0.10;;;0.10;;
23517;SDS011;11935;50.878;4.392;2023-11-19T02:32:57;0.10;;;0.10;;
23517;SDS011;11935;50.878;4.392;2023-11-19T02:35:27;0.00;;;0.00;;
23517;SDS011;11935;50.878;4.392;2023-11-19T02:37:56;0.10;;;0.10;;
23517;SDS011;11935;50.878;4.392;2023-11-19T02:40:22;0.00;;;0.00;;
23517;SDS011;11935;50.878;4.392;2023-11-19T02:42:54;0.00;;;0.00;;
23517;SDS011;11935;50.878;4.392;2023-11-19T02:45:22;0.00;;;0.00;;
23517;SDS011;11935;50.878;4.392;2023-11-19T02:47:48;0.00;;;0.00;;
23517;SDS011;11935;50.878;4.392;2023-11-19T02:50:14;0.00;;;0.00;;
23517;SDS011;11935;50.878;4.392;2023-11-19T02:52:40;0.00;;;0.00;;
23517;SDS011;11935;50.878;4.392;2023-11-19T02:55:07;0.00;;;0.00;;
23517;SDS011;11935;50.878;4.392;2023-11-19T02:57:41;0.00;;;0.00;;
23517;SDS011;11935;50.878;4.392;2023-11-19T03:00:22;0.00;;;0.00;;
23517;SDS011;11935;50.878;4.392;2023-11-19T03:02:49;0.00;;;0.00;;
23517;SDS011;11935;50.878;4.392;2023-11-19T03:05:30;0.00;;;0.00;;
23517;SDS011;11935;50.878;4.392;2023-11-19T03:07:56;0.00;;;0.00;;
23517;SDS011;11935;50.878;4.392;2023-11-19T03:10:22;0.03;;;0.03;;
23517;SDS011;11935;50.878;4.392;2023-11-19T03:12:49;0.00;;;0.00;;
23517;SDS011;11935;50.878;4.392;2023-11-19T03:15:15;0.00;;;0.00;;
23517;SDS011;11935;50.878;4.392;2023-11-19T03:17:41;0.10;;;0.10;;
23517;SDS011;11935;50.878;4.392;2023-11-19T03:20:09;0.00;;;0.00;;
23517;SDS011;11935;50.878;4.392;2023-11-19T03:22:36;0.03;;;0.03;;
23517;SDS011;11935;50.878;4.392;2023-11-19T03:25:03;0.10;;;0.10;;
23517;SDS011;11935;50.878;4.392;2023-11-19T03:27:29;0.00;;;0.00;;
23517;SDS011;11935;50.878;4.392;2023-11-19T03:29:55;0.00;;;0.00;;
23517;SDS011;11935;50.878;4.392;2023-11-19T03:32:21;0.00;;;0.00;;
23517;SDS011;11935;50.878;4.392;2023-11-19T03:34:47;0.00;;;0.00;;
23517;SDS011;11935;50.878;4.392;2023-11-19T03:37:13;0.00;;;0.00;;
23517;SDS011;11935;50.878;4.392;2023-11-19T03:39:42;0.00;;;0.00;;
23517;SDS011;11935;50.878;4.392;2023-11-19T03:42:08;0.00;;;0.00;;
23517;SDS011;11935;50.878;4.392;2023-11-19T03:44:34;0.00;;;0.00;;
23517;SDS011;11935;50.878;4.392;2023-11-19T03:47:00;0.00;;;0.00;;
23517;SDS011;11935;50.878;4.392;2023-11-19T03:49:26;0.00;;;0.00;;
23517;SDS011;11935;50.878;4.392;2023-11-19T03:51:53;0.00;;;0.00;;
23517;SDS011;11935;50.878;4.392;2023-11-19T03:54:19;0.00;;;0.00;;
23517;SDS011;11935;50.878;4.392;2023-11-19T03:56:48;0.05;;;0.05;;
23517;SDS011;11935;50.878;4.392;2023-11-19T03:59:14;0.00;;;0.00;;
23517;SDS011;11935;50.878;4.392;2023-11-19T04:01:40;0.00;;;0.00;;
23517;SDS011;11935;50.878;4.392;2023-11-19T04:04:06;0.10;;;0.10;;
23517;SDS011;11935;50.878;4.392;2023-11-19T04:06:32;0.10;;;0.10;;
23517;SDS011;11935;50.878;4.392;2023-11-19T04:08:59;0.00;;;0.00;;
23517;SDS011;11935;50.878;4.392;2023-11-19T04:11:25;0.10;;;0.10;;
23517;SDS011;11935;50.878;4.392;2023-11-19T04:13:51;0.00;;;0.00;;
23517;SDS011;11935;50.878;4.392;2023-11-19T04:16:17;0.10;;;0.10;;
23517;SDS011;11935;50.878;4.392;2023-11-19T04:18:43;0.10;;;0.10;;
23517;SDS011;11935;50.878;4.392;2023-11-19T04:21:09;0.00;;;0.00;;
23517;SDS011;11935;50.878;4.392;2023-11-19T04:23:36;0.10;;;0.10;;
23517;SDS011;11935;50.878;4.392;2023-11-19T04:26:02;0.00;;;0.00;;
23517;SDS011;11935;50.878;4.392;2023-11-19T04:28:29;0.10;;;0.10;;
23517;SDS011;11935;50.878;4.392;2023-11-19T04:30:55;0.00;;;0.00;;
23517;SDS011;11935;50.878;4.392;2023-11-19T04:33:21;0.00;;;0.00;;
23517;SDS011;11935;50.878;4.392;2023-11-19T04:35:48;0.10;;;0.10;;
23517;SDS011;11935;50.878;4.392;2023-11-19T04:38:14;0.00;;;0.00;;
23517;SDS011;11935;50.878;4.392;2023-11-19T04:40:40;0.10;;;0.10;;
23517;SDS011;11935;50.878;4.392;2023-11-19T04:43:07;0.10;;;0.10;;
23517;SDS011;11935;50.878;4.392;2023-11-19T04:45:33;0.00;;;0.00;;
23517;SDS011;11935;50.878;4.392;2023-11-19T04:47:59;0.00;;;0.00;;
23517;SDS011;11935;50.878;4.392;2023-11-19T04:50:25;0.10;;;0.10;;
23517;SDS011;11935;50.878;4.392;2023-11-19T04:52:52;0.10;;;0.10;;
23517;SDS011;11935;50.878;4.392;2023-11-19T04:55:19;0.05;;;0.05;;
23517;SDS011;11935;50.878;4.392;2023-11-19T04:57:45;0.10;;;0.10;;
23517;SDS011;11935;50.878;4.392;2023-11-19T05:00:11;0.10;;;0.10;;
23517;SDS011;11935;50.878;4.392;2023-11-19T05:02:38;0.10;;;0.10;;
23517;SDS011;11935;50.878;4.392;2023-11-19T05:05:04;0.10;;;0.10;;
23517;SDS011;11935;50.878;4.392;2023-11-19T05:07:31;0.00;;;0.00;;
23517;SDS011;11935;50.878;4.392;2023-11-19T05:09:57;0.10;;;0.10;;
23517;SDS011;11935;50.878;4.392;2023-11-19T05:12:23;0.00;;;0.00;;
23517;SDS011;11935;50.878;4.392;2023-11-19T05:14:49;0.10;;;0.10;;
23517;SDS011;11935;50.878;4.392;2023-11-19T05:17:16;0.00;;;0.00;;
23517;SDS011;11935;50.878;4.392;2023-11-19T05:19:43;0.10;;;0.10;;
23517;SDS011;11935;50.878;4.392;2023-11-19T05:22:09;0.10;;;0.10;;
23517;SDS011;11935;50.878;4.392;2023-11-19T05:24:35;0.10;;;0.10;;
23517;SDS011;11935;50.878;4.392;2023-11-19T05:27:02;0.03;;;0.03;;
23517;SDS011;11935;50.878;4.392;2023-11-19T05:29:28;0.00;;;0.00;;
23517;SDS011;11935;50.878;4.392;2023-11-19T05:31:54;0.10;;;0.10;;
23517;SDS011;11935;50.878;4.392;2023-11-19T05:34:20;0.10;;;0.10;;
23517;SDS011;11935;50.878;4.392;2023-11-19T05:36:47;0.10;;;0.10;;
23517;SDS011;11935;50.878;4.392;2023-11-19T05:39:13;0.10;;;0.10;;
23517;SDS011;11935;50.878;4.392;2023-11-19T05:41:39;0.10;;;0.10;;
23517;SDS011;11935;50.878;4.392;2023-11-19T05:44:05;0.00;;;0.00;;
23517;SDS011;11935;50.878;4.392;2023-11-19T05:46:31;0.10;;;0.10;;
23517;SDS011;11935;50.878;4.392;2023-11-19T05:48:58;0.10;;;0.10;;
23517;SDS011;11935;50.878;4.392;2023-11-19T05:51:24;0.00;;;0.00;;
23517;SDS011;11935;50.878;4.392;2023-11-19T05:53:50;0.10;;;0.10;;
23517;SDS011;11935;50.878;4.392;2023-11-19T05:56:16;0.00;;;0.00;;
23517;SDS011;11935;50.878;4.392;2023-11-19T05:58:46;0.10;;;0.10;;
23517;SDS011;11935;50.878;4.392;2023-11-19T06:01:14;0.10;;;0.10;;
23517;SDS011;11935;50.878;4.392;2023-11-19T06:03:40;0.10;;;0.10;;
23517;SDS011;11935;50.878;4.392;2023-11-19T06:06:08;0.10;;;0.10;;
23517;SDS011;11935;50.878;4.392;2023-11-19T06:08:35;0.10;;;0.10;;
23517;SDS011;11935;50.878;4.392;2023-11-19T06:11:02;0.10;;;0.10;;
23517;SDS011;11935;50.878;4.392;2023-11-19T06:13:28;0.00;;;0.00;;
23517;SDS011;11935;50.878;4.392;2023-11-19T06:15:55;0.10;;;0.10;;
23517;SDS011;11935;50.878;4.392;2023-11-19T06:18:21;0.10;;;0.10;;
23517;SDS011;11935;50.878;4.392;2023-11-19T06:20:48;0.08;;;0.08;;
23517;SDS011;11935;50.878;4.392;2023-11-19T06:23:14;0.10;;;0.10;;
23517;SDS011;11935;50.878;4.392;2023-11-19T06:25:41;0.10;;;0.10;;
23517;SDS011;11935;50.878;4.392;2023-11-19T06:28:07;0.10;;;0.10;;
23517;SDS011;11935;50.878;4.392;2023-11-19T06:30:33;0.10;;;0.10;;
23517;SDS011;11935;50.878;4.392;2023-11-19T06:33:01;0.10;;;0.10;;
23517;SDS011;11935;50.878;4.392;2023-11-19T06:35:28;0.10;;;0.10;;
23517;SDS011;11935;50.878;4.392;2023-11-19T06:38:01;0.10;;;0.10;;
23517;SDS011;11935;50.878;4.392;2023-11-19T06:40:27;0.10;;;0.10;;
23517;SDS011;11935;50.878;4.392;2023-11-19T06:42:54;0.10;;;0.10;;
23517;SDS011;11935;50.878;4.392;2023-11-19T06:45:20;0.00;;;0.00;;
23517;SDS011;11935;50.878;4.392;2023-11-19T06:47:46;0.10;;;0.10;;
23517;SDS011;11935;50.878;4.392;2023-11-19T06:50:12;0.05;;;0.05;;
23517;SDS011;11935;50.878;4.392;2023-11-19T06:52:40;0.10;;;0.10;;
23517;SDS011;11935;50.878;4.392;2023-11-19T06:55:06;0.10;;;0.10;;
23517;SDS011;11935;50.878;4.392;2023-11-19T06:57:32;0.05;;;0.05;;
23517;SDS011;11935;50.878;4.392;2023-11-19T06:59:59;0.10;;;0.10;;
23517;SDS011;11935;50.878;4.392;2023-11-19T07:02:25;0.00;;;0.00;;
23517;SDS011;11935;50.878;4.392;2023-11-19T07:04:51;0.10;;;0.10;;
23517;SDS011;11935;50.878;4.392;2023-11-19T07:07:17;0.10;;;0.10;;
23517;SDS011;11935;50.878;4.392;2023-11-19T07:09:43;0.10;;;0.10;;
23517;SDS011;11935;50.878;4.392;2023-11-19T07:12:10;0.10;;;0.10;;
23517;SDS011;11935;50.878;4.392;2023-11-19T07:14:36;0.10;;;0.10;;
23517;SDS011;11935;50.878;4.392;2023-11-19T07:17:02;0.10;;;0.10;;
23517;SDS011;11935;50.878;4.392;2023-11-19T07:19:28;0.00;;;0.00;;
23517;SDS011;11935;50.878;4.392;2023-11-19T07:21:54;0.10;;;0.10;;
23517;SDS011;11935;50.878;4.392;2023-11-19T07:24:21;0.10;;;0.10;;
23517;SDS011;11935;50.878;4.392;2023-11-19T07:26:47;0.10;;;0.10;;
23517;SDS011;11935;50.878;4.392;2023-11-19T07:29:14;0.10;;;0.10;;
23517;SDS011;11935;50.878;4.392;2023-11-19T07:31:41;0.10;;;0.10;;
23517;SDS011;11935;50.878;4.392;2023-11-19T07:34:09;0.10;;;0.10;;
23517;SDS011;11935;50.878;4.392;2023-11-19T07:36:36;0.10;;;0.10;;
23517;SDS011;11935;50.878;4.392;2023-11-19T07:39:03;0.10;;;0.10;;
23517;SDS011;11935;50.878;4.392;2023-11-19T07:41:30;0.00;;;0.00;;
23517;SDS011;11935;50.878;4.392;2023-11-19T07:43:56;0.10;;;0.10;;
23517;SDS011;11935;50.878;4.392;2023-11-19T07:46:22;0.10;;;0.10;;
23517;SDS011;11935;50.878;4.392;2023-11-19T07:48:50;0.10;;;0.10;;
23517;SDS011;11935;50.878;4.392;2023-11-19T07:51:16;0.10;;;0.10;;
23517;SDS011;11935;50.878;4.392;2023-11-19T07:53:42;0.10;;;0.10;;
23517;SDS011;11935;50.878;4.392;2023-11-19T07:56:08;0.10;;;0.10;;
23517;SDS011;11935;50.878;4.392;2023-11-19T07:58:35;0.10;;;0.10;;
23517;SDS011;11935;50.878;4.392;2023-11-19T08:01:01;0.10;;;0.10;;
23517;SDS011;11935;50.878;4.392;2023-11-19T08:03:27;0.00;;;0.00;;
23517;SDS011;11935;50.878;4.392;2023-11-19T08:05:57;0.10;;;0.10;;
23517;SDS011;11935;50.878;4.392;2023-11-19T08:08:23;0.10;;;0.10;;
23517;SDS011;11935;50.878;4.392;2023-11-19T08:10:49;0.10;;;0.10;;
23517;SDS011;11935;50.878;4.392;2023-11-19T08:13:19;0.10;;;0.10;;
23517;SDS011;11935;50.878;4.392;2023-11-19T08:15:45;0.10;;;0.10;;
23517;SDS011;11935;50.878;4.392;2023-11-19T08:18:12;0.10;;;0.10;;
23517;SDS011;11935;50.878;4.392;2023-11-19T08:20:38;0.10;;;0.10;;
23517;SDS011;11935;50.878;4.392;2023-11-19T08:23:04;0.10;;;0.10;;
23517;SDS011;11935;50.878;4.392;2023-11-19T08:25:30;0.10;;;0.10;;
23517;SDS011;11935;50.878;4.392;2023-11-19T08:27:58;0.10;;;0.10;;
23517;SDS011;11935;50.878;4.392;2023-11-19T08:30:25;0.10;;;0.10;;
23517;SDS011;11935;50.878;4.392;2023-11-19T08:32:52;0.10;;;0.10;;
23517;SDS011;11935;50.878;4.392;2023-11-19T08:35:18;0.10;;;0.10;;
23517;SDS011;11935;50.878;4.392;2023-11-19T08:37:44;0.10;;;0.10;;
23517;SDS011;11935;50.878;4.392;2023-11-19T08:40:11;0.10;;;0.10;;
23517;SDS011;11935;50.878;4.392;2023-11-19T08:45:06;0.10;;;0.10;;
23517;SDS011;11935;50.878;4.392;2023-11-19T08:47:32;0.00;;;0.00;;
23517;SDS011;11935;50.878;4.392;2023-11-19T08:49:58;0.10;;;0.10;;
23517;SDS011;11935;50.878;4.392;2023-11-19T08:52:24;0.10;;;0.10;;
23517;SDS011;11935;50.878;4.392;2023-11-19T08:54:50;0.10;;;0.10;;
23517;SDS011;11935;50.878;4.392;2023-11-19T08:57:16;0.10;;;0.10;;
23517;SDS011;11935;50.878;4.392;2023-11-19T08:59:42;0.10;;;0.10;;
23517;SDS011;11935;50.878;4.392;2023-11-19T09:02:10;0.10;;;0.10;;
23517;SDS011;11935;50.878;4.392;2023-11-19T09:04:36;0.00;;;0.00;;
23517;SDS011;11935;50.878;4.392;2023-11-19T09:07:02;0.00;;;0.00;;
23517;SDS011;11935;50.878;4.392;2023-11-19T09:09:29;0.10;;;0.10;;
23517;SDS011;11935;50.878;4.392;2023-11-19T09:11:55;0.10;;;0.10;;
23517;SDS011;11935;50.878;4.392;2023-11-19T09:14:21;0.10;;;0.10;;
23517;SDS011;11935;50.878;4.392;2023-11-19T09:16:50;0.10;;;0.10;;
23517;SDS011;11935;50.878;4.392;2023-11-19T09:19:16;0.00;;;0.00;;
23517;SDS011;11935;50.878;4.392;2023-11-19T09:21:43;0.10;;;0.10;;
23517;SDS011;11935;50.878;4.392;2023-11-19T09:24:09;0.10;;;0.10;;
23517;SDS011;11935;50.878;4.392;2023-11-19T09:26:35;0.10;;;0.10;;
23517;SDS011;11935;50.878;4.392;2023-11-19T09:29:01;0.10;;;0.10;;
23517;SDS011;11935;50.878;4.392;2023-11-19T09:31:27;0.10;;;0.10;;
23517;SDS011;11935;50.878;4.392;2023-11-19T09:33:53;0.10;;;0.10;;
23517;SDS011;11935;50.878;4.392;2023-11-19T09:36:20;0.10;;;0.10;;
23517;SDS011;11935;50.878;4.392;2023-11-19T09:38:46;0.10;;;0.10;;
23517;SDS011;11935;50.878;4.392;2023-11-19T09:41:12;0.10;;;0.10;;
23517;SDS011;11935;50.878;4.392;2023-11-19T09:43:42;0.10;;;0.10;;
23517;SDS011;11935;50.878;4.392;2023-11-19T09:46:12;0.10;;;0.10;;
23517;SDS011;11935;50.878;4.392;2023-11-19T09:48:39;0.10;;;0.10;;
23517;SDS011;11935;50.878;4.392;2023-11-19T09:51:28;0.10;;;0.10;;
23517;SDS011;11935;50.878;4.392;2023-11-19T09:53:54;0.10;;;0.10;;
23517;SDS011;11935;50.878;4.392;2023-11-19T09:56:20;0.10;;;0.10;;
23517;SDS011;11935;50.878;4.392;2023-11-19T09:58:47;0.10;;;0.10;;
23517;SDS011;11935;50.878;4.392;2023-11-19T10:01:13;0.10;;;0.10;;
23517;SDS011;11935;50.878;4.392;2023-11-19T10:03:39;0.00;;;0.00;;
23517;SDS011;11935;50.878;4.392;2023-11-19T10:06:09;0.10;;;0.10;;
23517;SDS011;11935;50.878;4.392;2023-11-19T10:08:38;0.10;;;0.10;;
23517;SDS011;11935;50.878;4.392;2023-11-19T10:11:05;0.10;;;0.10;;
23517;SDS011;11935;50.878;4.392;2023-11-19T10:13:34;0.10;;;0.10;;
23517;SDS011;11935;50.878;4.392;2023-11-19T10:16:04;0.10;;;0.10;;
23517;SDS011;11935;50.878;4.392;2023-11-19T10:18:30;0.10;;;0.10;;
23517;SDS011;11935;50.878;4.392;2023-11-19T10:20:56;0.10;;;0.10;;
23517;SDS011;11935;50.878;4.392;2023-11-19T10:23:22;0.10;;;0.10;;
23517;SDS011;11935;50.878;4.392;2023-11-19T10:25:49;0.10;;;0.10;;
23517;SDS011;11935;50.878;4.392;2023-11-19T10:28:18;0.10;;;0.10;;
23517;SDS011;11935;50.878;4.392;2023-11-19T10:30:45;0.00;;;0.00;;
23517;SDS011;11935;50.878;4.392;2023-11-19T10:33:14;0.00;;;0.00;;
23517;SDS011;11935;50.878;4.392;2023-11-19T10:35:52;0.10;;;0.10;;
23517;SDS011;11935;50.878;4.392;2023-11-19T10:38:19;0.00;;;0.00;;
23517;SDS011;11935;50.878;4.392;2023-11-19T10:40:45;0.00;;;0.00;;
23517;SDS011;11935;50.878;4.392;2023-11-19T10:43:12;0.10;;;0.10;;
23517;SDS011;11935;50.878;4.392;2023-11-19T10:45:38;0.10;;;0.10;;
23517;SDS011;11935;50.878;4.392;2023-11-19T10:48:05;0.10;;;0.10;;
23517;SDS011;11935;50.878;4.392;2023-11-19T10:50:38;0.00;;;0.00;;
23517;SDS011;11935;50.878;4.392;2023-11-19T10:53:05;0.10;;;0.10;;
23517;SDS011;11935;50.878;4.392;2023-11-19T10:55:32;0.10;;;0.10;;
23517;SDS011;11935;50.878;4.392;2023-11-19T10:58:00;0.10;;;0.10;;
23517;SDS011;11935;50.878;4.392;2023-11-19T11:00:30;0.10;;;0.10;;
23517;SDS011;11935;50.878;4.392;2023-11-19T11:03:00;0.10;;;0.10;;
23517;SDS011;11935;50.878;4.392;2023-11-19T11:05:26;0.10;;;0.10;;
23517;SDS011;11935;50.878;4.392;2023-11-19T11:07:54;0.10;;;0.10;;
23517;SDS011;11935;50.878;4.392;2023-11-19T11:10:22;0.10;;;0.10;;
23517;SDS011;11935;50.878;4.392;2023-11-19T11:12:51;0.10;;;0.10;;
23517;SDS011;11935;50.878;4.392;2023-11-19T11:15:24;0.00;;;0.00;;
23517;SDS011;11935;50.878;4.392;2023-11-19T11:17:54;0.00;;;0.00;;
23517;SDS011;11935;50.878;4.392;2023-11-19T11:20:21;0.10;;;0.10;;
23517;SDS011;11935;50.878;4.392;2023-11-19T11:28:16;0.10;;;0.10;;
23517;SDS011;11935;50.878;4.392;2023-11-19T11:33:24;0.00;;;0.00;;
23517;SDS011;11935;50.878;4.392;2023-11-19T11:35:55;0.00;;;0.00;;
23517;SDS011;11935;50.878;4.392;2023-11-19T11:38:26;0.00;;;0.00;;
23517;SDS011;11935;50.878;4.392;2023-11-19T11:49:09;0.00;;;0.00;;
23517;SDS011;11935;50.878;4.392;2023-11-19T11:54:14;0.00;;;0.00;;
23517;SDS011;11935;50.878;4.392;2023-11-19T11:59:52;0.00;;;0.00;;
23517;SDS011;11935;50.878;4.392;2023-11-19T12:02:19;0.00;;;0.00;;
23517;SDS011;11935;50.878;4.392;2023-11-19T12:04:47;0.00;;;0.00;;
23517;SDS011;11935;50.878;4.392;2023-11-19T12:07:16;0.00;;;0.00;;
23517;SDS011;11935;50.878;4.392;2023-11-19T12:09:42;0.00;;;0.00;;
23517;SDS011;11935;50.878;4.392;2023-11-19T12:20:00;0.10;;;0.10;;
23517;SDS011;11935;50.878;4.392;2023-11-19T12:22:26;0.00;;;0.00;;
23517;SDS011;11935;50.878;4.392;2023-11-19T12:24:53;0.00;;;0.00;;
23517;SDS011;11935;50.878;4.392;2023-11-19T12:27:20;0.10;;;0.10;;
23517;SDS011;11935;50.878;4.392;2023-11-19T12:29:49;0.10;;;0.10;;
23517;SDS011;11935;50.878;4.392;2023-11-19T12:32:15;0.00;;;0.00;;
23517;SDS011;11935;50.878;4.392;2023-11-19T12:34:42;0.10;;;0.10;;
23517;SDS011;11935;50.878;4.392;2023-11-19T12:37:09;0.10;;;0.10;;
23517;SDS011;11935;50.878;4.392;2023-11-19T12:39:35;0.10;;;0.10;;
23517;SDS011;11935;50.878;4.392;2023-11-19T12:42:02;0.10;;;0.10;;
23517;SDS011;11935;50.878;4.392;2023-11-19T12:44:28;0.10;;;0.10;;
23517;SDS011;11935;50.878;4.392;2023-11-19T12:47:04;0.10;;;0.10;;
23517;SDS011;11935;50.878;4.392;2023-11-19T12:49:32;0.10;;;0.10;;
23517;SDS011;11935;50.878;4.392;2023-11-19T12:51:58;0.10;;;0.10;;
23517;SDS011;11935;50.878;4.392;2023-11-19T12:54:37;0.00;;;0.00;;
23517;SDS011;11935;50.878;4.392;2023-11-19T12:59:30;0.10;;;0.10;;
23517;SDS011;11935;50.878;4.392;2023-11-19T13:01:59;0.10;;;0.10;;
23517;SDS011;11935;50.878;4.392;2023-11-19T13:04:29;0.10;;;0.10;;
23517;SDS011;11935;50.878;4.392;2023-11-19T13:06:58;0.10;;;0.10;;
23517;SDS011;11935;50.878;4.392;2023-11-19T13:09:25;0.00;;;0.00;;
23517;SDS011;11935;50.878;4.392;2023-11-19T13:11:52;0.10;;;0.10;;
23517;SDS011;11935;50.878;4.392;2023-11-19T13:14:18;0.00;;;0.00;;
23517;SDS011;11935;50.878;4.392;2023-11-19T13:16:46;0.10;;;0.10;;
23517;SDS011;11935;50.878;4.392;2023-11-19T13:19:13;0.08;;;0.08;;
23517;SDS011;11935;50.878;4.392;2023-11-19T13:21:39;0.10;;;0.10;;
23517;SDS011;11935;50.878;4.392;2023-11-19T13:24:05;0.10;;;0.10;;
23517;SDS011;11935;50.878;4.392;2023-11-19T13:26:32;0.10;;;0.10;;
23517;SDS011;11935;50.878;4.392;2023-11-19T13:28:58;0.00;;;0.00;;
23517;SDS011;11935;50.878;4.392;2023-11-19T13:31:24;0.10;;;0.10;;
23517;SDS011;11935;50.878;4.392;2023-11-19T13:33:51;0.03;;;0.03;;
23517;SDS011;11935;50.878;4.392;2023-11-19T13:36:17;0.10;;;0.10;;
23517;SDS011;11935;50.878;4.392;2023-11-19T13:38:44;0.10;;;0.10;;
23517;SDS011;11935;50.878;4.392;2023-11-19T13:41:11;0.10;;;0.10;;
23517;SDS011;11935;50.878;4.392;2023-11-19T13:43:38;0.05;;;0.05;;
23517;SDS011;11935;50.878;4.392;2023-11-19T13:46:05;0.10;;;0.10;;
23517;SDS011;11935;50.878;4.392;2023-11-19T13:48:31;0.10;;;0.10;;
23517;SDS011;11935;50.878;4.392;2023-11-19T13:50:57;0.10;;;0.10;;
23517;SDS011;11935;50.878;4.392;2023-11-19T13:53:23;0.10;;;0.10;;
23517;SDS011;11935;50.878;4.392;2023-11-19T13:55:49;0.10;;;0.10;;
23517;SDS011;11935;50.878;4.392;2023-11-19T13:58:15;0.10;;;0.10;;
23517;SDS011;11935;50.878;4.392;2023-11-19T14:00:42;0.10;;;0.10;;
23517;SDS011;11935;50.878;4.392;2023-11-19T14:03:08;0.10;;;0.10;;
23517;SDS011;11935;50.878;4.392;2023-11-19T14:05:38;0.10;;;0.10;;
23517;SDS011;11935;50.878;4.392;2023-11-19T14:08:04;0.10;;;0.10;;
23517;SDS011;11935;50.878;4.392;2023-11-19T14:10:39;0.10;;;0.10;;
23517;SDS011;11935;50.878;4.392;2023-11-19T14:13:08;0.10;;;0.10;;
23517;SDS011;11935;50.878;4.392;2023-11-19T14:15:34;0.10;;;0.10;;
23517;SDS011;11935;50.878;4.392;2023-11-19T14:18:00;0.10;;;0.10;;
23517;SDS011;11935;50.878;4.392;2023-11-19T14:20:28;0.10;;;0.10;;
23517;SDS011;11935;50.878;4.392;2023-11-19T14:22:54;0.10;;;0.10;;
23517;SDS011;11935;50.878;4.392;2023-11-19T14:25:20;0.10;;;0.10;;
23517;SDS011;11935;50.878;4.392;2023-11-19T14:30:14;0.10;;;0.10;;
23517;SDS011;11935;50.878;4.392;2023-11-19T14:32:41;0.03;;;0.03;;
23517;SDS011;11935;50.878;4.392;2023-11-19T14:37:35;0.00;;;0.00;;
23517;SDS011;11935;50.878;4.392;2023-11-19T14:40:01;0.10;;;0.10;;
23517;SDS011;11935;50.878;4.392;2023-11-19T14:42:32;0.10;;;0.10;;
23517;SDS011;11935;50.878;4.392;2023-11-19T14:44:58;2.30;;;0.20;;
23517;SDS011;11935;50.878;4.392;2023-11-19T14:47:24;2.72;;;0.75;;
23517;SDS011;11935;50.878;4.392;2023-11-19T14:49:50;3.25;;;1.52;;
23517;SDS011;11935;50.878;4.392;2023-11-19T14:52:20;4.05;;;1.20;;
23517;SDS011;11935;50.878;4.392;2023-11-19T14:54:49;0.65;;;0.65;;
23517;SDS011;11935;50.878;4.392;2023-11-19T14:57:16;2.67;;;1.20;;
23517;SDS011;11935;50.878;4.392;2023-11-19T14:59:42;2.42;;;1.33;;
23517;SDS011;11935;50.878;4.392;2023-11-19T15:02:08;2.45;;;0.63;;
23517;SDS011;11935;50.878;4.392;2023-11-19T15:04:35;0.20;;;0.20;;
23517;SDS011;11935;50.878;4.392;2023-11-19T15:07:02;5.50;;;1.25;;
23517;SDS011;11935;50.878;4.392;2023-11-19T15:09:29;3.58;;;0.85;;
23517;SDS011;11935;50.878;4.392;2023-11-19T15:11:55;1.15;;;1.02;;
23517;SDS011;11935;50.878;4.392;2023-11-19T15:14:23;11.63;;;3.08;;
23517;SDS011;11935;50.878;4.392;2023-11-19T15:16:49;0.68;;;0.68;;
23517;SDS011;11935;50.878;4.392;2023-11-19T15:19:16;1.65;;;1.20;;
23517;SDS011;11935;50.878;4.392;2023-11-19T15:21:43;2.90;;;1.17;;
23517;SDS011;11935;50.878;4.392;2023-11-19T15:24:09;1.33;;;0.80;;
23517;SDS011;11935;50.878;4.392;2023-11-19T15:26:36;1.95;;;0.88;;
23517;SDS011;11935;50.878;4.392;2023-11-19T15:29:02;2.65;;;1.23;;